sensor_id;sensor_type;location;lat;lon;timestamp;temperature;humidity
1704;DHT22;849;48.780;9.216;2022-07-29T00:02:12;24.20;99.90
1704;DHT22;849;48.780;9.216;2022-07-29T00:04:38;24.30;99.90
1704;DHT22;849;48.780;9.216;2022-07-29T00:07:04;24.10;99.90
1704;DHT22;849;48.780;9.216;2022-07-29T00:09:31;23.90;99.90
1704;DHT22;849;48.780;9.216;2022-07-29T00:11:59;23.90;99.90
1704;DHT22;849;48.780;9.216;2022-07-29T00:14:26;23.90;99.90
1704;DHT22;849;48.780;9.216;2022-07-29T00:16:51;23.70;99.90
1704;DHT22;849;48.780;9.216;2022-07-29T00:19:20;23.80;99.90
1704;DHT22;849;48.780;9.216;2022-07-29T00:21:45;23.70;99.90
1704;DHT22;849;48.780;9.216;2022-07-29T00:24:11;23.70;99.90
1704;DHT22;849;48.780;9.216;2022-07-29T00:26:37;23.70;99.90
1704;DHT22;849;48.780;9.216;2022-07-29T00:29:03;23.70;99.90
1704;DHT22;849;48.780;9.216;2022-07-29T00:31:29;23.70;99.90
1704;DHT22;849;48.780;9.216;2022-07-29T00:33:55;23.60;99.90
1704;DHT22;849;48.780;9.216;2022-07-29T00:36:21;23.60;99.90
1704;DHT22;849;48.780;9.216;2022-07-29T00:38:48;23.50;99.90
1704;DHT22;849;48.780;9.216;2022-07-29T00:41:14;23.40;99.90
1704;DHT22;849;48.780;9.216;2022-07-29T00:43:41;23.20;99.90
1704;DHT22;849;48.780;9.216;2022-07-29T00:46:06;23.20;99.90
1704;DHT22;849;48.780;9.216;2022-07-29T00:48:32;23.20;99.90
1704;DHT22;849;48.780;9.216;2022-07-29T00:51:00;23.10;99.90
1704;DHT22;849;48.780;9.216;2022-07-29T00:53:26;23.10;99.90
1704;DHT22;849;48.780;9.216;2022-07-29T00:55:53;23.10;99.90
1704;DHT22;849;48.780;9.216;2022-07-29T00:58:20;23.20;99.90
1704;DHT22;849;48.780;9.216;2022-07-29T01:00:46;23.20;99.90
1704;DHT22;849;48.780;9.216;2022-07-29T01:03:11;23.10;99.90
1704;DHT22;849;48.780;9.216;2022-07-29T01:05:38;23.10;99.90
1704;DHT22;849;48.780;9.216;2022-07-29T01:08:05;22.90;99.90
1704;DHT22;849;48.780;9.216;2022-07-29T01:10:31;22.90;99.90
1704;DHT22;849;48.780;9.216;2022-07-29T01:12:58;23.10;99.90
1704;DHT22;849;48.780;9.216;2022-07-29T01:15:24;23.10;99.90
1704;DHT22;849;48.780;9.216;2022-07-29T01:18:13;22.90;99.90
1704;DHT22;849;48.780;9.216;2022-07-29T01:31:47;23.10;99.90
1704;DHT22;849;48.780;9.216;2022-07-29T01:35:06;23.10;99.90
1704;DHT22;849;48.780;9.216;2022-07-29T01:37:37;23.20;99.90
1704;DHT22;849;48.780;9.216;2022-07-29T01:40:08;23.30;99.90
1704;DHT22;849;48.780;9.216;2022-07-29T01:42:44;23.40;99.90
1704;DHT22;849;48.780;9.216;2022-07-29T01:45:14;23.50;99.90
1704;DHT22;849;48.780;9.216;2022-07-29T01:48:16;23.50;99.90
1704;DHT22;849;48.780;9.216;2022-07-29T01:51:12;23.50;99.90
1704;DHT22;849;48.780;9.216;2022-07-29T01:53:51;23.40;99.90
1704;DHT22;849;48.780;9.216;2022-07-29T01:56:20;23.30;99.90
1704;DHT22;849;48.780;9.216;2022-07-29T01:58:47;23.30;99.90
1704;DHT22;849;48.780;9.216;2022-07-29T02:01:14;23.20;99.90
1704;DHT22;849;48.780;9.216;2022-07-29T02:03:44;22.90;99.90
1704;DHT22;849;48.780;9.216;2022-07-29T02:06:11;22.90;99.90
1704;DHT22;849;48.780;9.216;2022-07-29T02:08:38;22.90;99.90
1704;DHT22;849;48.780;9.216;2022-07-29T02:11:05;22.70;99.90
1704;DHT22;849;48.780;9.216;2022-07-29T02:13:34;22.70;99.90
1704;DHT22;849;48.780;9.216;2022-07-29T02:16:02;22.70;99.90
1704;DHT22;849;48.780;9.216;2022-07-29T02:18:30;22.70;99.90
1704;DHT22;849;48.780;9.216;2022-07-29T02:20:58;22.50;99.90
1704;DHT22;849;48.780;9.216;2022-07-29T02:23:25;22.40;99.90
1704;DHT22;849;48.780;9.216;2022-07-29T02:25:53;22.60;99.90
1704;DHT22;849;48.780;9.216;2022-07-29T02:28:23;22.80;99.90
1704;DHT22;849;48.780;9.216;2022-07-29T02:30:50;22.80;99.90
1704;DHT22;849;48.780;9.216;2022-07-29T02:33:18;22.60;99.90
1704;DHT22;849;48.780;9.216;2022-07-29T02:35:46;22.60;99.90
1704;DHT22;849;48.780;9.216;2022-07-29T02:38:14;22.50;99.90
1704;DHT22;849;48.780;9.216;2022-07-29T02:41:01;22.60;99.90
1704;DHT22;849;48.780;9.216;2022-07-29T02:43:30;22.40;99.90
1704;DHT22;849;48.780;9.216;2022-07-29T02:45:57;22.30;99.90
1704;DHT22;849;48.780;9.216;2022-07-29T02:48:37;22.10;99.90
1704;DHT22;849;48.780;9.216;2022-07-29T02:51:17;22.10;99.90
1704;DHT22;849;48.780;9.216;2022-07-29T02:53:49;21.70;99.90
1704;DHT22;849;48.780;9.216;2022-07-29T02:56:20;21.70;99.90
1704;DHT22;849;48.780;9.216;2022-07-29T02:58:57;21.80;99.90
1704;DHT22;849;48.780;9.216;2022-07-29T03:01:25;21.90;99.90
1704;DHT22;849;48.780;9.216;2022-07-29T03:03:54;22.00;99.90
1704;DHT22;849;48.780;9.216;2022-07-29T03:06:22;22.20;99.90
1704;DHT22;849;48.780;9.216;2022-07-29T03:08:48;22.10;99.90
1704;DHT22;849;48.780;9.216;2022-07-29T03:11:15;22.20;99.90
1704;DHT22;849;48.780;9.216;2022-07-29T03:13:42;22.20;99.90
1704;DHT22;849;48.780;9.216;2022-07-29T03:16:08;22.50;99.90
1704;DHT22;849;48.780;9.216;2022-07-29T03:18:36;22.70;99.90
1704;DHT22;849;48.780;9.216;2022-07-29T03:21:03;22.80;99.90
1704;DHT22;849;48.780;9.216;2022-07-29T03:23:29;22.90;99.90
1704;DHT22;849;48.780;9.216;2022-07-29T03:25:55;22.80;99.90
1704;DHT22;849;48.780;9.216;2022-07-29T03:28:21;22.30;99.90
1704;DHT22;849;48.780;9.216;2022-07-29T03:30:47;22.30;99.90
1704;DHT22;849;48.780;9.216;2022-07-29T03:33:13;22.30;99.90
1704;DHT22;849;48.780;9.216;2022-07-29T03:35:39;22.50;99.90
1704;DHT22;849;48.780;9.216;2022-07-29T03:38:05;22.60;99.90
1704;DHT22;849;48.780;9.216;2022-07-29T03:40:48;22.50;99.90
1704;DHT22;849;48.780;9.216;2022-07-29T03:43:16;22.60;99.90
1704;DHT22;849;48.780;9.216;2022-07-29T03:45:45;22.50;99.90
1704;DHT22;849;48.780;9.216;2022-07-29T03:48:14;22.50;99.90
1704;DHT22;849;48.780;9.216;2022-07-29T03:50:41;22.30;99.90
1704;DHT22;849;48.780;9.216;2022-07-29T03:53:07;22.30;99.90
1704;DHT22;849;48.780;9.216;2022-07-29T03:55:37;22.30;99.90
1704;DHT22;849;48.780;9.216;2022-07-29T03:58:06;22.40;99.90
1704;DHT22;849;48.780;9.216;2022-07-29T04:00:34;22.30;99.90
1704;DHT22;849;48.780;9.216;2022-07-29T04:03:00;22.40;99.90
1704;DHT22;849;48.780;9.216;2022-07-29T04:05:26;22.30;99.90
1704;DHT22;849;48.780;9.216;2022-07-29T04:07:52;22.20;99.90
1704;DHT22;849;48.780;9.216;2022-07-29T04:10:18;22.20;99.90
1704;DHT22;849;48.780;9.216;2022-07-29T04:12:44;22.30;99.90
1704;DHT22;849;48.780;9.216;2022-07-29T04:15:10;22.40;99.90
1704;DHT22;849;48.780;9.216;2022-07-29T04:17:36;22.40;99.90
1704;DHT22;849;48.780;9.216;2022-07-29T04:20:02;22.30;99.90
1704;DHT22;849;48.780;9.216;2022-07-29T04:22:28;22.20;99.90
1704;DHT22;849;48.780;9.216;2022-07-29T04:24:54;22.30;99.90
1704;DHT22;849;48.780;9.216;2022-07-29T04:27:20;22.20;99.90
1704;DHT22;849;48.780;9.216;2022-07-29T04:29:45;22.20;99.90
1704;DHT22;849;48.780;9.216;2022-07-29T04:32:11;22.20;99.90
1704;DHT22;849;48.780;9.216;2022-07-29T04:34:37;22.30;99.90
1704;DHT22;849;48.780;9.216;2022-07-29T04:37:02;22.40;99.90
1704;DHT22;849;48.780;9.216;2022-07-29T04:39:28;22.40;99.90
1704;DHT22;849;48.780;9.216;2022-07-29T04:41:53;22.50;99.90
1704;DHT22;849;48.780;9.216;2022-07-29T04:44:19;22.40;99.90
1704;DHT22;849;48.780;9.216;2022-07-29T04:46:45;22.30;99.90
1704;DHT22;849;48.780;9.216;2022-07-29T04:49:11;22.40;99.90
1704;DHT22;849;48.780;9.216;2022-07-29T04:51:36;22.40;99.90
1704;DHT22;849;48.780;9.216;2022-07-29T04:54:03;22.50;99.90
1704;DHT22;849;48.780;9.216;2022-07-29T04:56:28;22.60;99.90
1704;DHT22;849;48.780;9.216;2022-07-29T04:58:54;22.30;99.90
1704;DHT22;849;48.780;9.216;2022-07-29T05:01:20;22.40;99.90
1704;DHT22;849;48.780;9.216;2022-07-29T05:03:45;22.50;99.90
1704;DHT22;849;48.780;9.216;2022-07-29T05:06:11;22.60;99.90
1704;DHT22;849;48.780;9.216;2022-07-29T05:08:37;22.50;99.90
1704;DHT22;849;48.780;9.216;2022-07-29T05:11:03;22.20;99.90
1704;DHT22;849;48.780;9.216;2022-07-29T05:13:29;22.30;99.90
1704;DHT22;849;48.780;9.216;2022-07-29T05:15:55;22.30;99.90
1704;DHT22;849;48.780;9.216;2022-07-29T05:18:21;22.50;99.90
1704;DHT22;849;48.780;9.216;2022-07-29T05:20:46;22.50;99.90
1704;DHT22;849;48.780;9.216;2022-07-29T05:23:12;22.70;99.90
1704;DHT22;849;48.780;9.216;2022-07-29T05:25:38;22.80;99.90
1704;DHT22;849;48.780;9.216;2022-07-29T05:28:04;22.70;99.90
1704;DHT22;849;48.780;9.216;2022-07-29T05:30:29;22.60;99.90
1704;DHT22;849;48.780;9.216;2022-07-29T05:32:55;22.90;99.90
1704;DHT22;849;48.780;9.216;2022-07-29T05:35:21;22.90;99.90
1704;DHT22;849;48.780;9.216;2022-07-29T05:37:46;22.90;99.90
1704;DHT22;849;48.780;9.216;2022-07-29T05:40:12;22.90;99.90
1704;DHT22;849;48.780;9.216;2022-07-29T05:42:38;22.90;99.90
1704;DHT22;849;48.780;9.216;2022-07-29T05:45:03;22.90;99.90
1704;DHT22;849;48.780;9.216;2022-07-29T05:47:30;23.20;99.90
1704;DHT22;849;48.780;9.216;2022-07-29T05:49:56;23.40;99.90
1704;DHT22;849;48.780;9.216;2022-07-29T05:52:22;23.30;99.90
1704;DHT22;849;48.780;9.216;2022-07-29T05:54:47;23.40;99.90
1704;DHT22;849;48.780;9.216;2022-07-29T05:57:21;23.40;99.90
1704;DHT22;849;48.780;9.216;2022-07-29T05:59:47;23.30;99.90
1704;DHT22;849;48.780;9.216;2022-07-29T06:02:13;23.50;99.90
1704;DHT22;849;48.780;9.216;2022-07-29T06:04:39;23.70;99.90
1704;DHT22;849;48.780;9.216;2022-07-29T06:07:05;24.00;99.90
1704;DHT22;849;48.780;9.216;2022-07-29T06:09:31;23.50;99.90
1704;DHT22;849;48.780;9.216;2022-07-29T06:11:57;23.40;99.90
1704;DHT22;849;48.780;9.216;2022-07-29T06:14:24;23.40;99.90
1704;DHT22;849;48.780;9.216;2022-07-29T06:16:49;23.90;99.90
1704;DHT22;849;48.780;9.216;2022-07-29T06:19:15;23.80;99.90
1704;DHT22;849;48.780;9.216;2022-07-29T06:21:45;23.90;99.90
1704;DHT22;849;48.780;9.216;2022-07-29T06:24:11;24.20;99.90
1704;DHT22;849;48.780;9.216;2022-07-29T06:26:38;24.20;99.90
1704;DHT22;849;48.780;9.216;2022-07-29T06:29:05;24.40;99.90
1704;DHT22;849;48.780;9.216;2022-07-29T06:31:30;24.70;99.90
1704;DHT22;849;48.780;9.216;2022-07-29T06:33:56;24.60;99.90
1704;DHT22;849;48.780;9.216;2022-07-29T06:36:22;24.70;99.90
1704;DHT22;849;48.780;9.216;2022-07-29T06:38:47;24.80;99.90
1704;DHT22;849;48.780;9.216;2022-07-29T06:41:13;25.00;99.90
1704;DHT22;849;48.780;9.216;2022-07-29T06:43:42;25.00;99.90
1704;DHT22;849;48.780;9.216;2022-07-29T06:46:10;25.00;99.90
1704;DHT22;849;48.780;9.216;2022-07-29T06:48:36;25.10;99.90
1704;DHT22;849;48.780;9.216;2022-07-29T06:51:03;25.20;99.90
1704;DHT22;849;48.780;9.216;2022-07-29T06:53:30;25.30;99.90
1704;DHT22;849;48.780;9.216;2022-07-29T06:55:57;25.30;99.90
1704;DHT22;849;48.780;9.216;2022-07-29T06:58:23;25.20;99.90
1704;DHT22;849;48.780;9.216;2022-07-29T07:00:49;25.40;99.90
1704;DHT22;849;48.780;9.216;2022-07-29T07:03:16;25.40;99.90
1704;DHT22;849;48.780;9.216;2022-07-29T07:05:42;25.40;99.90
1704;DHT22;849;48.780;9.216;2022-07-29T07:08:08;25.20;99.90
1704;DHT22;849;48.780;9.216;2022-07-29T07:10:34;25.30;99.90
1704;DHT22;849;48.780;9.216;2022-07-29T07:13:00;24.80;99.90
1704;DHT22;849;48.780;9.216;2022-07-29T07:15:26;24.80;99.90
1704;DHT22;849;48.780;9.216;2022-07-29T07:17:52;25.00;99.90
1704;DHT22;849;48.780;9.216;2022-07-29T07:20:18;25.40;99.90
1704;DHT22;849;48.780;9.216;2022-07-29T07:22:44;25.40;99.90
1704;DHT22;849;48.780;9.216;2022-07-29T07:25:11;25.20;99.90
1704;DHT22;849;48.780;9.216;2022-07-29T07:27:37;25.30;99.90
1704;DHT22;849;48.780;9.216;2022-07-29T07:30:04;25.10;99.90
1704;DHT22;849;48.780;9.216;2022-07-29T07:32:32;25.00;99.90
1704;DHT22;849;48.780;9.216;2022-07-29T07:34:57;25.30;99.90
1704;DHT22;849;48.780;9.216;2022-07-29T07:37:24;25.50;99.90
1704;DHT22;849;48.780;9.216;2022-07-29T07:39:50;25.70;99.90
1704;DHT22;849;48.780;9.216;2022-07-29T07:42:17;25.40;99.90
1704;DHT22;849;48.780;9.216;2022-07-29T07:44:43;25.40;99.90
1704;DHT22;849;48.780;9.216;2022-07-29T07:47:08;25.60;99.90
1704;DHT22;849;48.780;9.216;2022-07-29T07:49:34;25.70;99.90
1704;DHT22;849;48.780;9.216;2022-07-29T07:52:00;25.50;99.90
1704;DHT22;849;48.780;9.216;2022-07-29T07:54:27;25.30;99.90
1704;DHT22;849;48.780;9.216;2022-07-29T07:56:52;25.60;99.90
1704;DHT22;849;48.780;9.216;2022-07-29T07:59:18;25.70;99.90
1704;DHT22;849;48.780;9.216;2022-07-29T08:01:43;25.50;99.90
1704;DHT22;849;48.780;9.216;2022-07-29T08:04:09;25.50;99.90
1704;DHT22;849;48.780;9.216;2022-07-29T08:06:35;25.60;99.90
1704;DHT22;849;48.780;9.216;2022-07-29T08:09:03;25.50;99.90
1704;DHT22;849;48.780;9.216;2022-07-29T08:11:29;25.60;99.90
1704;DHT22;849;48.780;9.216;2022-07-29T08:13:55;25.40;99.90
1704;DHT22;849;48.780;9.216;2022-07-29T08:16:21;25.30;99.90
1704;DHT22;849;48.780;9.216;2022-07-29T08:18:47;25.20;99.90
1704;DHT22;849;48.780;9.216;2022-07-29T08:21:14;25.20;99.90
1704;DHT22;849;48.780;9.216;2022-07-29T08:23:40;25.10;99.90
1704;DHT22;849;48.780;9.216;2022-07-29T08:26:12;25.30;99.90
1704;DHT22;849;48.780;9.216;2022-07-29T08:28:39;25.20;99.90
1704;DHT22;849;48.780;9.216;2022-07-29T08:31:05;25.50;99.90
1704;DHT22;849;48.780;9.216;2022-07-29T08:33:31;25.50;99.90
1704;DHT22;849;48.780;9.216;2022-07-29T08:35:56;25.50;99.90
1704;DHT22;849;48.780;9.216;2022-07-29T08:38:22;25.60;99.90
1704;DHT22;849;48.780;9.216;2022-07-29T08:40:48;25.70;99.90
1704;DHT22;849;48.780;9.216;2022-07-29T08:43:14;25.70;99.90
1704;DHT22;849;48.780;9.216;2022-07-29T08:45:45;25.90;99.90
1704;DHT22;849;48.780;9.216;2022-07-29T08:48:13;25.90;99.90
1704;DHT22;849;48.780;9.216;2022-07-29T08:50:39;25.80;99.90
1704;DHT22;849;48.780;9.216;2022-07-29T08:53:11;25.40;99.90
1704;DHT22;849;48.780;9.216;2022-07-29T08:55:40;25.00;99.90
1704;DHT22;849;48.780;9.216;2022-07-29T08:58:07;24.90;99.90
1704;DHT22;849;48.780;9.216;2022-07-29T09:00:34;24.80;99.90
1704;DHT22;849;48.780;9.216;2022-07-29T09:03:02;25.10;99.90
1704;DHT22;849;48.780;9.216;2022-07-29T09:05:29;25.40;99.90
1704;DHT22;849;48.780;9.216;2022-07-29T09:07:56;25.40;99.90
1704;DHT22;849;48.780;9.216;2022-07-29T09:10:22;25.30;99.90
1704;DHT22;849;48.780;9.216;2022-07-29T09:12:47;25.30;99.90
1704;DHT22;849;48.780;9.216;2022-07-29T09:15:14;25.60;99.90
1704;DHT22;849;48.780;9.216;2022-07-29T09:17:45;25.90;99.90
1704;DHT22;849;48.780;9.216;2022-07-29T09:20:13;25.90;99.90
1704;DHT22;849;48.780;9.216;2022-07-29T09:22:39;26.10;99.90
1704;DHT22;849;48.780;9.216;2022-07-29T09:25:05;26.10;99.20
1704;DHT22;849;48.780;9.216;2022-07-29T09:27:31;26.40;98.70
1704;DHT22;849;48.780;9.216;2022-07-29T09:30:07;26.70;95.00
1704;DHT22;849;48.780;9.216;2022-07-29T09:32:55;26.80;94.70
1704;DHT22;849;48.780;9.216;2022-07-29T09:35:23;26.70;92.40
1704;DHT22;849;48.780;9.216;2022-07-29T09:37:49;26.70;94.60
1704;DHT22;849;48.780;9.216;2022-07-29T09:40:20;26.80;94.10
1704;DHT22;849;48.780;9.216;2022-07-29T09:42:46;26.70;94.30
1704;DHT22;849;48.780;9.216;2022-07-29T09:45:25;26.70;95.00
1704;DHT22;849;48.780;9.216;2022-07-29T09:47:51;26.70;93.00
1704;DHT22;849;48.780;9.216;2022-07-29T09:50:17;26.70;94.00
1704;DHT22;849;48.780;9.216;2022-07-29T09:52:51;26.70;92.70
1704;DHT22;849;48.780;9.216;2022-07-29T09:55:17;27.20;93.20
1704;DHT22;849;48.780;9.216;2022-07-29T09:57:45;27.10;91.10
1704;DHT22;849;48.780;9.216;2022-07-29T10:00:13;27.00;90.20
1704;DHT22;849;48.780;9.216;2022-07-29T10:02:41;27.20;90.30
1704;DHT22;849;48.780;9.216;2022-07-29T10:05:22;27.30;86.90
1704;DHT22;849;48.780;9.216;2022-07-29T10:07:53;27.60;87.80
1704;DHT22;849;48.780;9.216;2022-07-29T10:10:27;27.80;83.30
1704;DHT22;849;48.780;9.216;2022-07-29T10:13:00;27.90;82.40
1704;DHT22;849;48.780;9.216;2022-07-29T10:15:29;27.90;82.70
1704;DHT22;849;48.780;9.216;2022-07-29T10:17:56;28.10;82.40
1704;DHT22;849;48.780;9.216;2022-07-29T10:20:22;28.30;78.60
1704;DHT22;849;48.780;9.216;2022-07-29T10:22:50;27.90;79.10
1704;DHT22;849;48.780;9.216;2022-07-29T10:25:16;27.70;79.40
1704;DHT22;849;48.780;9.216;2022-07-29T10:27:43;27.40;82.20
1704;DHT22;849;48.780;9.216;2022-07-29T10:30:09;27.30;83.30
1704;DHT22;849;48.780;9.216;2022-07-29T10:38:27;27.30;82.70
1704;DHT22;849;48.780;9.216;2022-07-29T10:44:05;27.20;80.70
1704;DHT22;849;48.780;9.216;2022-07-29T10:46:38;27.10;81.60
1704;DHT22;849;48.780;9.216;2022-07-29T10:49:12;27.30;84.10
1704;DHT22;849;48.780;9.216;2022-07-29T10:59:45;26.60;99.90
1704;DHT22;849;48.780;9.216;2022-07-29T11:05:00;26.30;99.90
1704;DHT22;849;48.780;9.216;2022-07-29T11:07:27;26.10;99.90
1704;DHT22;849;48.780;9.216;2022-07-29T11:15:08;25.00;99.90
1704;DHT22;849;48.780;9.216;2022-07-29T11:20:46;24.40;99.90
1704;DHT22;849;48.780;9.216;2022-07-29T11:23:31;24.20;99.90
1704;DHT22;849;48.780;9.216;2022-07-29T11:34:27;23.90;99.90
1704;DHT22;849;48.780;9.216;2022-07-29T11:47:20;23.70;99.90
1704;DHT22;849;48.780;9.216;2022-07-29T11:49:47;23.80;99.90
1704;DHT22;849;48.780;9.216;2022-07-29T11:52:13;24.10;99.90
1704;DHT22;849;48.780;9.216;2022-07-29T11:54:42;24.10;99.90
1704;DHT22;849;48.780;9.216;2022-07-29T11:57:08;24.10;99.90
1704;DHT22;849;48.780;9.216;2022-07-29T11:59:41;24.10;99.90
1704;DHT22;849;48.780;9.216;2022-07-29T12:02:08;23.80;99.90
1704;DHT22;849;48.780;9.216;2022-07-29T12:04:47;23.40;99.90
1704;DHT22;849;48.780;9.216;2022-07-29T12:07:13;23.40;99.90
1704;DHT22;849;48.780;9.216;2022-07-29T12:09:39;23.90;99.90
1704;DHT22;849;48.780;9.216;2022-07-29T12:12:05;24.00;99.90
1704;DHT22;849;48.780;9.216;2022-07-29T12:14:32;24.20;99.90
1704;DHT22;849;48.780;9.216;2022-07-29T12:16:59;24.50;99.90
1704;DHT22;849;48.780;9.216;2022-07-29T12:19:26;24.90;99.90
1704;DHT22;849;48.780;9.216;2022-07-29T12:21:54;25.10;99.90
1704;DHT22;849;48.780;9.216;2022-07-29T12:24:20;24.70;99.90
1704;DHT22;849;48.780;9.216;2022-07-29T12:26:57;24.60;99.90
1704;DHT22;849;48.780;9.216;2022-07-29T12:29:23;24.30;99.90
1704;DHT22;849;48.780;9.216;2022-07-29T12:31:53;24.40;99.90
1704;DHT22;849;48.780;9.216;2022-07-29T12:34:22;24.60;99.90
1704;DHT22;849;48.780;9.216;2022-07-29T12:36:48;24.60;99.90
1704;DHT22;849;48.780;9.216;2022-07-29T12:39:16;24.40;99.90
1704;DHT22;849;48.780;9.216;2022-07-29T12:41:42;24.20;99.90
1704;DHT22;849;48.780;9.216;2022-07-29T12:44:09;24.20;99.90
1704;DHT22;849;48.780;9.216;2022-07-29T12:46:35;24.40;99.90
1704;DHT22;849;48.780;9.216;2022-07-29T12:49:01;24.40;99.90
1704;DHT22;849;48.780;9.216;2022-07-29T12:51:39;24.10;99.90
1704;DHT22;849;48.780;9.216;2022-07-29T12:54:13;24.20;99.90
1704;DHT22;849;48.780;9.216;2022-07-29T12:56:42;24.50;99.90
1704;DHT22;849;48.780;9.216;2022-07-29T12:59:21;24.60;99.90
1704;DHT22;849;48.780;9.216;2022-07-29T13:01:49;24.60;99.90
1704;DHT22;849;48.780;9.216;2022-07-29T13:04:29;24.70;99.90
1704;DHT22;849;48.780;9.216;2022-07-29T13:07:08;24.80;99.90
1704;DHT22;849;48.780;9.216;2022-07-29T13:09:38;24.80;99.90
1704;DHT22;849;48.780;9.216;2022-07-29T13:12:09;24.80;99.90
1704;DHT22;849;48.780;9.216;2022-07-29T13:14:40;24.80;99.90
1704;DHT22;849;48.780;9.216;2022-07-29T13:17:18;24.70;99.90
1704;DHT22;849;48.780;9.216;2022-07-29T13:20:13;23.90;99.90
1704;DHT22;849;48.780;9.216;2022-07-29T13:22:40;23.70;99.90
1704;DHT22;849;48.780;9.216;2022-07-29T13:25:08;24.00;99.90
1704;DHT22;849;48.780;9.216;2022-07-29T13:27:37;24.10;99.90
1704;DHT22;849;48.780;9.216;2022-07-29T13:30:07;24.10;99.90
1704;DHT22;849;48.780;9.216;2022-07-29T13:32:34;24.10;99.90
1704;DHT22;849;48.780;9.216;2022-07-29T13:35:03;23.90;99.90
1704;DHT22;849;48.780;9.216;2022-07-29T13:37:29;23.10;99.90
1704;DHT22;849;48.780;9.216;2022-07-29T13:39:58;22.80;99.90
1704;DHT22;849;48.780;9.216;2022-07-29T13:42:25;22.90;99.90
1704;DHT22;849;48.780;9.216;2022-07-29T13:44:52;23.20;99.90
1704;DHT22;849;48.780;9.216;2022-07-29T13:47:18;23.60;99.90
1704;DHT22;849;48.780;9.216;2022-07-29T13:49:44;23.50;99.90
1704;DHT22;849;48.780;9.216;2022-07-29T13:52:10;23.90;99.90
1704;DHT22;849;48.780;9.216;2022-07-29T13:54:35;24.00;99.90
1704;DHT22;849;48.780;9.216;2022-07-29T13:57:03;23.80;99.90
1704;DHT22;849;48.780;9.216;2022-07-29T13:59:29;23.70;99.90
1704;DHT22;849;48.780;9.216;2022-07-29T14:01:55;23.70;99.90
1704;DHT22;849;48.780;9.216;2022-07-29T14:04:21;23.50;99.90
1704;DHT22;849;48.780;9.216;2022-07-29T14:06:49;24.20;99.90
1704;DHT22;849;48.780;9.216;2022-07-29T14:09:14;24.40;99.90
1704;DHT22;849;48.780;9.216;2022-07-29T14:11:40;24.30;99.90
1704;DHT22;849;48.780;9.216;2022-07-29T14:14:06;24.80;99.90
1704;DHT22;849;48.780;9.216;2022-07-29T14:16:31;25.40;99.90
1704;DHT22;849;48.780;9.216;2022-07-29T14:18:57;25.80;99.90
1704;DHT22;849;48.780;9.216;2022-07-29T14:21:23;25.90;99.90
1704;DHT22;849;48.780;9.216;2022-07-29T14:23:48;26.10;99.90
1704;DHT22;849;48.780;9.216;2022-07-29T14:26:14;26.30;99.90
1704;DHT22;849;48.780;9.216;2022-07-29T14:28:40;26.40;99.90
1704;DHT22;849;48.780;9.216;2022-07-29T14:31:05;26.50;99.90
1704;DHT22;849;48.780;9.216;2022-07-29T14:33:31;26.70;99.90
1704;DHT22;849;48.780;9.216;2022-07-29T14:35:56;26.80;99.90
1704;DHT22;849;48.780;9.216;2022-07-29T14:38:22;27.00;99.90
1704;DHT22;849;48.780;9.216;2022-07-29T14:40:48;27.20;99.90
1704;DHT22;849;48.780;9.216;2022-07-29T14:43:13;27.20;99.90
1704;DHT22;849;48.780;9.216;2022-07-29T14:45:40;27.20;99.90
1704;DHT22;849;48.780;9.216;2022-07-29T14:48:06;27.20;99.90
1704;DHT22;849;48.780;9.216;2022-07-29T14:50:31;27.30;99.90
1704;DHT22;849;48.780;9.216;2022-07-29T14:52:57;27.30;99.90
1704;DHT22;849;48.780;9.216;2022-07-29T14:55:23;27.30;99.90
1704;DHT22;849;48.780;9.216;2022-07-29T14:57:49;27.10;99.90
1704;DHT22;849;48.780;9.216;2022-07-29T15:00:16;27.20;99.90
1704;DHT22;849;48.780;9.216;2022-07-29T15:02:42;27.10;99.90
1704;DHT22;849;48.780;9.216;2022-07-29T15:05:08;27.00;99.90
1704;DHT22;849;48.780;9.216;2022-07-29T15:07:33;26.50;99.90
1704;DHT22;849;48.780;9.216;2022-07-29T15:09:59;26.60;99.90
1704;DHT22;849;48.780;9.216;2022-07-29T15:12:25;26.40;99.90
1704;DHT22;849;48.780;9.216;2022-07-29T15:14:50;26.30;99.90
1704;DHT22;849;48.780;9.216;2022-07-29T15:17:16;26.30;99.90
1704;DHT22;849;48.780;9.216;2022-07-29T15:19:42;26.10;99.90
1704;DHT22;849;48.780;9.216;2022-07-29T15:22:07;26.50;99.90
1704;DHT22;849;48.780;9.216;2022-07-29T15:24:33;26.70;99.90
1704;DHT22;849;48.780;9.216;2022-07-29T15:26:59;26.80;99.90
1704;DHT22;849;48.780;9.216;2022-07-29T15:29:25;26.40;99.90
1704;DHT22;849;48.780;9.216;2022-07-29T15:31:50;26.00;99.90
1704;DHT22;849;48.780;9.216;2022-07-29T15:34:16;26.10;99.90
1704;DHT22;849;48.780;9.216;2022-07-29T15:36:42;26.10;99.90
1704;DHT22;849;48.780;9.216;2022-07-29T15:39:08;26.30;99.90
1704;DHT22;849;48.780;9.216;2022-07-29T15:41:34;26.30;99.90
1704;DHT22;849;48.780;9.216;2022-07-29T15:44:00;26.60;99.90
1704;DHT22;849;48.780;9.216;2022-07-29T15:46:25;26.60;99.90
1704;DHT22;849;48.780;9.216;2022-07-29T15:49:10;26.70;99.90
1704;DHT22;849;48.780;9.216;2022-07-29T15:51:36;26.60;99.90
1704;DHT22;849;48.780;9.216;2022-07-29T15:54:03;26.40;99.90
1704;DHT22;849;48.780;9.216;2022-07-29T15:56:29;26.30;99.90
1704;DHT22;849;48.780;9.216;2022-07-29T15:58:55;26.40;99.90
1704;DHT22;849;48.780;9.216;2022-07-29T16:01:20;26.30;99.90
1704;DHT22;849;48.780;9.216;2022-07-29T16:03:46;26.40;99.90
1704;DHT22;849;48.780;9.216;2022-07-29T16:06:12;26.50;99.90
1704;DHT22;849;48.780;9.216;2022-07-29T16:08:38;26.40;99.90
1704;DHT22;849;48.780;9.216;2022-07-29T16:11:04;26.50;99.90
1704;DHT22;849;48.780;9.216;2022-07-29T16:13:29;26.40;99.90
1704;DHT22;849;48.780;9.216;2022-07-29T16:15:55;26.40;99.90
1704;DHT22;849;48.780;9.216;2022-07-29T16:18:20;26.30;99.90
1704;DHT22;849;48.780;9.216;2022-07-29T16:20:46;26.30;99.90
1704;DHT22;849;48.780;9.216;2022-07-29T16:23:12;26.50;99.90
1704;DHT22;849;48.780;9.216;2022-07-29T16:25:38;26.80;99.90
1704;DHT22;849;48.780;9.216;2022-07-29T16:28:04;26.80;99.90
1704;DHT22;849;48.780;9.216;2022-07-29T16:30:30;27.00;99.90
1704;DHT22;849;48.780;9.216;2022-07-29T16:32:56;26.90;99.90
1704;DHT22;849;48.780;9.216;2022-07-29T16:35:21;26.90;99.90
1704;DHT22;849;48.780;9.216;2022-07-29T16:37:47;26.80;99.90
1704;DHT22;849;48.780;9.216;2022-07-29T16:40:13;26.80;99.90
1704;DHT22;849;48.780;9.216;2022-07-29T16:42:39;26.70;99.90
1704;DHT22;849;48.780;9.216;2022-07-29T16:45:08;26.50;99.90
1704;DHT22;849;48.780;9.216;2022-07-29T16:47:34;26.60;99.90
1704;DHT22;849;48.780;9.216;2022-07-29T16:49:59;26.40;99.90
1704;DHT22;849;48.780;9.216;2022-07-29T16:52:25;26.40;99.90
1704;DHT22;849;48.780;9.216;2022-07-29T16:54:51;26.30;99.90
1704;DHT22;849;48.780;9.216;2022-07-29T16:57:16;26.20;99.90
1704;DHT22;849;48.780;9.216;2022-07-29T16:59:42;25.90;99.90
1704;DHT22;849;48.780;9.216;2022-07-29T17:02:08;25.50;99.90
1704;DHT22;849;48.780;9.216;2022-07-29T17:04:36;25.60;99.90
1704;DHT22;849;48.780;9.216;2022-07-29T17:07:01;25.60;99.90
1704;DHT22;849;48.780;9.216;2022-07-29T17:09:27;25.80;99.90
1704;DHT22;849;48.780;9.216;2022-07-29T17:11:53;25.50;99.90
1704;DHT22;849;48.780;9.216;2022-07-29T17:14:21;25.60;99.90
1704;DHT22;849;48.780;9.216;2022-07-29T17:16:49;25.90;99.90
1704;DHT22;849;48.780;9.216;2022-07-29T17:19:15;25.80;99.90